createdAt,value
2022-09-13T00:01:14.131Z,14.85
2022-09-13T00:03:42.477Z,15.20
2022-09-13T00:06:13.888Z,15.33
2022-09-13T00:08:42.714Z,15.61
2022-09-13T00:11:39.963Z,15.53
2022-09-13T00:14:07.797Z,13.94
2022-09-13T00:16:35.835Z,13.07
2022-09-13T00:19:03.777Z,14.05
2022-09-13T00:21:31.958Z,15.07
2022-09-13T00:23:59.800Z,15.61
2022-09-13T00:26:29.315Z,15.61
2022-09-13T00:28:58.986Z,14.35
2022-09-13T00:31:28.721Z,13.40
2022-09-13T00:33:59.936Z,14.27
2022-09-13T00:36:28.336Z,15.24
2022-09-13T00:38:56.327Z,15.82
2022-09-13T00:41:24.491Z,15.87
2022-09-13T00:43:55.548Z,14.68
2022-09-13T00:46:45.760Z,13.80
2022-09-13T00:49:24.569Z,14.94
2022-09-13T00:51:59.803Z,15.82
2022-09-13T00:54:34.456Z,15.82
2022-09-13T00:57:04.868Z,14.37
2022-09-13T00:59:47.870Z,13.36
2022-09-13T01:02:15.898Z,14.19
2022-09-13T01:04:45.238Z,14.88
2022-09-13T01:07:16.943Z,15.44
2022-09-13T01:09:48.868Z,15.78
2022-09-13T01:12:32.197Z,15.63
2022-09-13T01:15:04.355Z,14.18
2022-09-13T01:17:34.091Z,13.28
2022-09-13T01:20:05.107Z,14.11
2022-09-13T01:23:14.236Z,14.92
2022-09-13T01:26:17.231Z,15.43
2022-09-13T01:28:58.957Z,15.56
2022-09-13T01:31:35.839Z,15.24
2022-09-13T01:34:16.792Z,13.72
2022-09-13T01:37:03.490Z,12.89
2022-09-13T01:40:06.859Z,13.94
2022-09-13T01:42:58.085Z,14.96
2022-09-13T01:45:46.800Z,15.43
2022-09-13T01:48:24.653Z,15.26
2022-09-13T01:51:16.847Z,13.74
2022-09-13T01:54:13.719Z,12.83
2022-09-13T01:56:58.423Z,13.74
2022-09-13T01:59:42.000Z,14.53
2022-09-13T02:02:19.072Z,15.13
2022-09-13T02:04:54.427Z,15.31
2022-09-13T02:07:30.630Z,15.10
2022-09-13T02:10:03.395Z,13.66
2022-09-13T02:12:35.172Z,12.70
2022-09-13T02:15:17.123Z,13.47
2022-09-13T02:17:54.723Z,14.27
2022-09-13T02:20:33.147Z,14.81
2022-09-13T02:23:04.877Z,15.19
2022-09-13T02:25:36.755Z,15.20
2022-09-13T02:28:09.663Z,13.94
2022-09-13T02:30:41.511Z,13.06
2022-09-13T02:33:22.495Z,13.87
2022-09-13T02:35:53.309Z,14.67
2022-09-13T02:38:27.949Z,14.99
2022-09-13T02:41:07.398Z,15.22
2022-09-13T02:43:39.957Z,14.75
2022-09-13T02:46:39.933Z,13.48
2022-09-13T02:49:34.060Z,12.78
2022-09-13T02:52:17.162Z,13.91
2022-09-13T02:54:53.654Z,14.72
2022-09-13T02:57:32.364Z,15.03
2022-09-13T03:00:00.846Z,15.33
2022-09-13T03:02:33.161Z,15.60
2022-09-13T03:05:02.395Z,15.48
2022-09-13T03:07:31.179Z,14.14
2022-09-13T03:10:05.516Z,12.78
2022-09-13T03:12:42.325Z,12.17
2022-09-13T03:15:37.801Z,13.39
2022-09-13T03:18:28.226Z,14.47
2022-09-13T03:21:14.134Z,15.00
2022-09-13T03:24:03.729Z,15.33
2022-09-13T03:26:44.863Z,15.63
2022-09-13T03:29:25.773Z,15.30
2022-09-13T03:32:18.373Z,13.79
2022-09-13T03:34:59.754Z,13.03
2022-09-13T03:37:30.475Z,14.23
2022-09-13T03:40:02.079Z,15.06
2022-09-13T03:42:41.705Z,15.46
2022-09-13T03:45:12.921Z,15.68
2022-09-13T03:47:44.059Z,15.81
2022-09-13T03:50:18.397Z,15.91
2022-09-13T03:52:51.803Z,16.07
2022-09-13T03:55:22.071Z,16.36
2022-09-13T03:57:49.928Z,16.18
2022-09-13T04:00:18.383Z,14.84
2022-09-13T04:02:46.326Z,13.91
2022-09-13T04:05:14.254Z,14.72
2022-09-13T04:07:42.188Z,15.60
2022-09-13T04:10:13.758Z,16.10
2022-09-13T04:12:41.960Z,16.46
2022-09-13T04:15:10.225Z,16.67
2022-09-13T04:17:38.078Z,16.41
2022-09-13T04:20:06.153Z,15.02
2022-09-13T04:22:34.029Z,14.10
2022-09-13T04:25:02.747Z,14.99
2022-09-13T04:27:30.777Z,15.80
2022-09-13T04:29:58.608Z,16.11
2022-09-13T04:32:26.535Z,16.27
2022-09-13T04:34:54.643Z,16.39
2022-09-13T04:37:22.847Z,16.13
2022-09-13T04:39:53.400Z,14.72
2022-09-13T04:42:21.326Z,13.82
2022-09-13T04:44:50.262Z,14.74
2022-09-13T04:47:18.521Z,15.56
2022-09-13T04:49:46.489Z,15.93
2022-09-13T04:52:15.218Z,16.14
2022-09-13T04:54:43.772Z,16.27
2022-09-13T04:57:12.517Z,16.42
2022-09-13T04:59:40.402Z,16.22
2022-09-13T05:02:08.343Z,14.96
2022-09-13T05:04:36.238Z,14.16
2022-09-13T05:07:04.938Z,15.20
2022-09-13T05:09:32.966Z,16.08
2022-09-13T05:12:00.884Z,16.60
2022-09-13T05:14:28.875Z,17.01
2022-09-13T05:16:56.782Z,17.07
2022-09-13T05:19:25.090Z,15.94
2022-09-13T05:21:53.064Z,15.17
2022-09-13T05:24:21.083Z,16.13
2022-09-13T05:26:48.957Z,17.15
2022-09-13T05:29:16.926Z,17.72
2022-09-13T05:31:45.153Z,18.02
2022-09-13T05:34:20.001Z,18.05
2022-09-13T05:36:54.115Z,16.81
2022-09-13T05:40:00.412Z,16.03
2022-09-13T05:42:10.817Z,17.17
2022-09-13T05:44:38.727Z,18.04
2022-09-13T05:47:07.000Z,18.60
2022-09-13T05:49:41.755Z,18.60
2022-09-13T05:52:17.884Z,17.30
2022-09-13T05:54:45.917Z,16.56
2022-09-13T05:57:13.789Z,17.42
2022-09-13T05:59:41.677Z,18.39
2022-09-13T06:02:10.785Z,18.98
2022-09-13T06:04:38.705Z,18.75
2022-09-13T06:07:06.590Z,17.43
2022-09-13T06:09:34.491Z,16.23
2022-09-13T06:12:02.568Z,15.73
2022-09-13T06:14:30.424Z,16.84
2022-09-13T06:16:58.845Z,17.85
2022-09-13T06:19:26.630Z,18.47
2022-09-13T06:21:54.465Z,17.39
2022-09-13T06:24:22.250Z,16.52
2022-09-13T06:26:50.124Z,17.45
2022-09-13T06:29:18.052Z,18.62
2022-09-13T06:31:46.104Z,18.47
2022-09-13T06:34:15.743Z,17.21
2022-09-13T06:36:44.049Z,16.59
2022-09-13T06:39:11.973Z,17.65
2022-09-13T06:41:40.042Z,18.72
2022-09-13T06:44:07.901Z,19.13
2022-09-13T06:46:36.092Z,18.07
2022-09-13T06:49:06.244Z,16.91
2022-09-13T06:51:35.744Z,16.64
2022-09-13T06:54:04.831Z,17.93
2022-09-13T06:56:35.800Z,19.11
2022-09-13T06:59:07.269Z,18.85
2022-09-13T07:01:38.812Z,17.66
2022-09-13T07:04:09.535Z,17.06
2022-09-13T07:06:40.608Z,18.15
2022-09-13T07:09:13.029Z,19.27
2022-09-13T07:11:42.428Z,19.14
2022-09-13T07:14:22.494Z,17.78
2022-09-13T07:16:51.976Z,17.44
2022-09-13T07:19:28.602Z,18.71
2022-09-13T07:21:57.541Z,18.15
2022-09-13T07:24:26.259Z,16.98
2022-09-13T07:26:54.195Z,16.64
2022-09-13T07:29:23.997Z,18.03
2022-09-13T07:31:54.850Z,19.18
2022-09-13T07:34:24.916Z,18.36
2022-09-13T07:36:53.844Z,17.48
2022-09-13T07:39:23.296Z,17.32
2022-09-13T07:41:56.080Z,18.78
2022-09-13T07:44:29.391Z,19.39
2022-09-13T07:47:02.980Z,18.39
2022-09-13T07:49:30.881Z,17.59
2022-09-13T07:51:58.813Z,17.68
2022-09-13T07:54:26.864Z,19.06
2022-09-13T07:56:54.792Z,19.98
2022-09-13T07:59:25.881Z,19.37
2022-09-13T08:01:56.261Z,18.52
2022-09-13T08:04:26.936Z,17.88
2022-09-13T08:06:54.876Z,17.39
2022-09-13T08:09:22.942Z,17.52
2022-09-13T08:11:53.390Z,19.20
2022-09-13T08:14:23.569Z,20.23
2022-09-13T08:16:57.262Z,19.57
2022-09-13T08:19:25.640Z,18.74
2022-09-13T08:21:53.532Z,18.13
2022-09-13T08:24:22.063Z,17.73
2022-09-13T08:26:52.286Z,17.93
2022-09-13T08:29:20.437Z,19.74
2022-09-13T08:31:49.563Z,20.87
2022-09-13T08:34:18.372Z,20.24
2022-09-13T08:36:46.263Z,19.50
2022-09-13T08:39:14.618Z,18.94
2022-09-13T08:41:45.199Z,18.47
2022-09-13T08:44:13.105Z,18.08
2022-09-13T08:46:47.820Z,17.87
2022-09-13T08:49:22.157Z,17.78
2022-09-13T08:51:54.729Z,17.69
2022-09-13T08:54:22.804Z,18.16
2022-09-13T08:57:12.586Z,20.01
2022-09-13T08:59:55.779Z,20.23
2022-09-13T09:03:10.891Z,19.50
2022-09-13T09:05:47.970Z,18.87
2022-09-13T09:08:36.813Z,18.63
2022-09-13T09:11:15.549Z,18.58
2022-09-13T09:13:55.080Z,18.55
2022-09-13T09:16:48.390Z,18.36
2022-09-13T09:19:28.487Z,18.28
2022-09-13T09:21:56.406Z,18.23
2022-09-13T09:24:26.307Z,18.20
2022-09-13T09:26:57.804Z,18.18
2022-09-13T09:29:33.623Z,18.23
2022-09-13T09:32:05.235Z,18.32
2022-09-13T09:35:07.382Z,18.38
2022-09-13T09:37:37.695Z,18.50
2022-09-13T09:40:10.572Z,18.62
2022-09-13T09:42:47.485Z,18.69
2022-09-13T09:45:42.006Z,18.72
2022-09-13T09:48:19.603Z,18.76
2022-09-13T09:51:01.381Z,18.79
2022-09-13T09:53:39.678Z,18.81
2022-09-13T09:56:29.521Z,18.91
2022-09-13T09:58:57.555Z,18.97
2022-09-13T10:01:37.983Z,19.02
2022-09-13T10:04:26.500Z,19.10
2022-09-13T10:07:26.592Z,19.09
2022-09-13T10:10:03.373Z,19.12
2022-09-13T10:12:34.768Z,19.10
2022-09-13T10:15:35.609Z,19.13
2022-09-13T10:21:18.092Z,19.45
2022-09-13T10:23:47.662Z,19.56
2022-09-13T10:26:25.877Z,19.64
2022-09-13T10:29:03.357Z,19.72
2022-09-13T10:34:21.138Z,19.64
2022-09-13T10:36:59.726Z,19.61
2022-09-13T10:39:32.092Z,19.55
2022-09-13T10:42:01.406Z,19.55
2022-09-13T10:44:45.158Z,19.61
2022-09-13T10:47:44.947Z,19.68
2022-09-13T10:50:27.331Z,19.71
2022-09-13T10:53:03.450Z,19.83
2022-09-13T10:55:44.036Z,19.94
2022-09-13T10:58:20.082Z,20.05
2022-09-13T11:04:49.974Z,20.05
2022-09-13T11:14:06.966Z,20.10
2022-09-13T11:17:13.483Z,20.26
2022-09-13T11:20:28.936Z,20.43
2022-09-13T11:26:23.296Z,20.53
2022-09-13T11:29:21.118Z,20.54
2022-09-13T11:32:20.486Z,20.58
2022-09-13T11:35:25.829Z,20.82
2022-09-13T11:38:16.744Z,21.03
2022-09-13T11:41:04.929Z,21.12
2022-09-13T11:43:50.030Z,21.40
2022-09-13T11:50:04.143Z,21.64
2022-09-13T11:52:51.956Z,21.70
2022-09-13T11:55:36.577Z,21.97
2022-09-13T11:58:11.922Z,22.32
2022-09-13T12:00:50.832Z,22.42
2022-09-13T12:03:50.953Z,22.47
2022-09-13T12:06:23.028Z,22.37
2022-09-13T12:09:34.951Z,22.30
2022-09-13T12:12:07.291Z,22.39
2022-09-13T12:15:00.278Z,22.39
2022-09-13T12:17:49.947Z,22.25
2022-09-13T12:20:35.643Z,22.07
2022-09-13T12:23:15.944Z,22.15
2022-09-13T12:25:58.180Z,22.19
2022-09-13T12:31:32.164Z,21.50
2022-09-13T12:34:15.230Z,21.15
2022-09-13T12:37:08.724Z,20.84
2022-09-13T12:39:49.732Z,20.59
2022-09-13T12:42:35.577Z,20.36
2022-09-13T12:45:49.017Z,20.16
2022-09-13T12:48:35.967Z,20.01
2022-09-13T12:51:37.961Z,19.90
2022-09-13T12:57:54.973Z,19.81
2022-09-13T13:00:34.789Z,19.83
2022-09-13T13:06:49.587Z,20.11
2022-09-13T13:09:42.706Z,20.38
2022-09-13T13:12:39.043Z,20.61
2022-09-13T13:15:15.854Z,20.85
2022-09-13T13:18:36.521Z,21.08
2022-09-13T13:21:23.174Z,21.34
2022-09-13T13:24:29.223Z,21.76
2022-09-13T13:26:59.171Z,22.20
2022-09-13T13:29:33.257Z,22.28
2022-09-13T13:32:01.527Z,22.15
2022-09-13T13:34:41.693Z,22.03
2022-09-13T13:37:12.353Z,21.92
2022-09-13T13:39:43.486Z,21.84
2022-09-13T13:42:18.212Z,21.86
2022-09-13T13:44:46.041Z,22.00
2022-09-13T13:47:13.853Z,22.21
2022-09-13T13:49:41.720Z,22.27
2022-09-13T13:52:10.166Z,22.03
2022-09-13T13:54:50.591Z,21.80
2022-09-13T13:57:39.874Z,21.60
2022-09-13T14:00:31.560Z,21.35
2022-09-13T14:03:02.092Z,21.12
2022-09-13T14:05:54.348Z,20.92
2022-09-13T14:12:31.582Z,20.54
2022-09-13T14:15:08.724Z,20.33
2022-09-13T14:18:08.005Z,20.22
2022-09-13T14:20:36.086Z,20.14
2022-09-13T14:23:21.312Z,20.19
2022-09-13T14:26:01.187Z,20.30
2022-09-13T14:28:29.476Z,20.37
2022-09-13T14:30:59.791Z,20.36
2022-09-13T14:33:32.416Z,20.38
2022-09-13T14:36:15.670Z,20.35
2022-09-13T14:39:19.695Z,20.28
2022-09-13T14:41:47.685Z,20.17
2022-09-13T14:44:29.007Z,20.05
2022-09-13T14:47:03.775Z,19.94
2022-09-13T14:49:40.010Z,19.84
2022-09-13T14:52:35.207Z,19.73
2022-09-13T14:55:09.901Z,19.60
2022-09-13T14:57:42.367Z,19.51
2022-09-13T15:00:46.639Z,19.44
2022-09-13T15:03:17.151Z,19.39
2022-09-13T15:05:53.741Z,19.36
2022-09-13T15:08:41.011Z,19.36
2022-09-13T15:11:15.421Z,19.36
2022-09-13T15:13:44.064Z,19.36
2022-09-13T15:16:41.089Z,19.39
2022-09-13T15:19:25.197Z,19.47
2022-09-13T15:22:02.292Z,19.56
2022-09-13T15:24:34.070Z,19.65
2022-09-13T15:27:40.777Z,19.67
2022-09-13T15:30:27.169Z,19.66
2022-09-13T15:33:23.064Z,19.62
2022-09-13T15:35:53.527Z,19.56
2022-09-13T15:38:28.402Z,19.47
2022-09-13T15:41:17.684Z,19.38
2022-09-13T15:43:48.620Z,19.30
2022-09-13T15:46:17.257Z,19.25
2022-09-13T15:48:53.622Z,19.18
2022-09-13T15:51:23.145Z,19.14
2022-09-13T15:53:52.167Z,19.14
2022-09-13T15:56:22.710Z,19.15
2022-09-13T15:58:50.642Z,19.15
2022-09-13T16:01:18.708Z,19.15
2022-09-13T16:03:46.648Z,19.14
2022-09-13T16:06:14.573Z,19.12
2022-09-13T16:08:42.418Z,19.09
2022-09-13T16:11:10.326Z,19.05
2022-09-13T16:13:38.303Z,19.02
2022-09-13T16:16:06.429Z,19.00
2022-09-13T16:18:34.460Z,19.09
2022-09-13T16:21:02.893Z,19.10
2022-09-13T16:23:31.085Z,19.07
2022-09-13T16:26:00.100Z,19.01
2022-09-13T16:28:28.519Z,18.96
2022-09-13T16:30:56.524Z,18.88
2022-09-13T16:33:24.457Z,18.81
2022-09-13T16:35:52.311Z,18.74
2022-09-13T16:38:20.827Z,18.68
2022-09-13T16:40:49.289Z,18.62
2022-09-13T16:43:18.149Z,18.58
2022-09-13T16:45:46.116Z,18.53
2022-09-13T16:48:14.019Z,18.48
2022-09-13T16:50:42.247Z,18.44
2022-09-13T16:53:10.137Z,18.40
2022-09-13T16:55:38.119Z,18.35
2022-09-13T16:58:06.032Z,18.30
2022-09-13T17:00:34.561Z,18.26
2022-09-13T17:03:03.024Z,18.22
2022-09-13T17:05:31.798Z,18.19
2022-09-13T17:08:00.354Z,18.16
2022-09-13T17:10:29.234Z,18.13
2022-09-13T17:12:57.746Z,18.10
2022-09-13T17:15:26.554Z,18.07
2022-09-13T17:17:54.993Z,18.04
2022-09-13T17:20:23.849Z,18.34
2022-09-13T17:22:53.643Z,20.05
2022-09-13T17:25:22.903Z,21.42
2022-09-13T17:27:52.008Z,21.87
2022-09-13T17:30:20.877Z,21.16
2022-09-13T17:32:49.259Z,20.37
2022-09-13T17:35:18.047Z,19.83
2022-09-13T17:37:46.537Z,19.46
2022-09-13T17:40:15.228Z,19.18
2022-09-13T17:42:43.831Z,18.97
2022-09-13T17:45:12.822Z,18.80
2022-09-13T17:47:41.943Z,18.64
2022-09-13T17:50:10.892Z,18.49
2022-09-13T17:52:39.688Z,18.33
2022-09-13T17:55:08.397Z,18.20
2022-09-13T17:57:37.017Z,18.40
2022-09-13T18:00:10.228Z,19.99
2022-09-13T18:02:38.920Z,21.34
2022-09-13T18:05:11.733Z,21.82
2022-09-13T18:07:42.133Z,21.05
2022-09-13T18:10:32.254Z,20.27
2022-09-13T18:13:00.367Z,19.68
2022-09-13T18:15:29.137Z,19.31
2022-09-13T18:17:57.799Z,19.01
2022-09-13T18:20:26.844Z,18.72
2022-09-13T18:22:56.141Z,18.45
2022-09-13T18:25:28.279Z,18.19
2022-09-13T18:27:57.017Z,18.41
2022-09-13T18:30:25.618Z,20.01
2022-09-13T18:32:55.689Z,21.24
2022-09-13T18:35:24.588Z,21.62
2022-09-13T18:37:53.302Z,20.88
2022-09-13T18:40:24.359Z,20.04
2022-09-13T18:42:53.657Z,19.45
2022-09-13T18:45:22.950Z,19.05
2022-09-13T18:47:52.099Z,18.76
2022-09-13T18:50:21.258Z,18.54
2022-09-13T18:52:50.499Z,18.33
2022-09-13T18:55:19.483Z,18.14
2022-09-13T18:57:48.789Z,18.02
2022-09-13T19:00:18.215Z,18.32
2022-09-13T19:03:10.800Z,20.02
2022-09-13T19:05:40.438Z,21.03
2022-09-13T19:08:12.508Z,20.33
2022-09-13T19:10:42.526Z,19.63
2022-09-13T19:13:12.109Z,19.14
2022-09-13T19:15:42.294Z,18.80
2022-09-13T19:18:11.920Z,18.53
2022-09-13T19:20:40.643Z,18.30
2022-09-13T19:23:11.377Z,18.12
2022-09-13T19:25:44.587Z,18.32
2022-09-13T19:28:14.378Z,19.81
2022-09-13T19:30:43.872Z,20.84
2022-09-13T19:33:13.491Z,20.30
2022-09-13T19:35:43.302Z,19.59
2022-09-13T19:38:13.145Z,19.09
2022-09-13T19:40:42.370Z,18.75
2022-09-13T19:43:11.074Z,18.48
2022-09-13T19:45:40.500Z,18.22
2022-09-13T19:51:06.629Z,18.30
2022-09-13T19:53:56.001Z,19.91
2022-09-13T19:56:28.433Z,20.80
2022-09-13T19:58:58.699Z,20.03
2022-09-13T20:01:39.841Z,19.25
2022-09-13T20:04:15.288Z,18.69
2022-09-13T20:06:50.567Z,18.27
2022-09-13T20:09:20.841Z,17.96
2022-09-13T20:11:50.480Z,18.11
2022-09-13T20:14:20.784Z,19.78
2022-09-13T20:16:49.304Z,20.90
2022-09-13T20:19:40.096Z,20.26
2022-09-13T20:22:12.587Z,19.30
2022-09-13T20:24:40.793Z,18.75
2022-09-13T20:27:11.197Z,18.35
2022-09-13T20:29:41.947Z,18.03
2022-09-13T20:32:11.995Z,18.13
2022-09-13T20:34:40.699Z,19.74
2022-09-13T20:37:09.700Z,20.77
2022-09-13T20:39:38.310Z,20.12
2022-09-13T20:42:09.974Z,19.26
2022-09-13T20:44:40.954Z,18.66
2022-09-13T20:47:10.534Z,18.23
2022-09-13T20:49:38.685Z,17.91
2022-09-13T20:52:07.426Z,17.98
2022-09-13T20:54:35.313Z,19.41
2022-09-13T20:57:03.161Z,20.56
2022-09-13T20:59:30.970Z,21.02
2022-09-13T21:01:58.920Z,20.22
2022-09-13T21:04:26.967Z,19.37
2022-09-13T21:07:14.820Z,18.77
2022-09-13T21:09:43.580Z,18.30
2022-09-13T21:12:11.624Z,17.97
2022-09-13T21:14:39.545Z,18.03
2022-09-13T21:17:08.585Z,19.36
2022-09-13T21:19:36.569Z,20.46
2022-09-13T21:22:04.523Z,20.84
2022-09-13T21:24:32.452Z,20.03
2022-09-13T21:27:00.352Z,19.19
2022-09-13T21:29:29.055Z,18.54
2022-09-13T21:31:56.983Z,18.34
2022-09-13T21:34:24.918Z,19.48
2022-09-13T21:36:54.845Z,20.40
2022-09-13T21:39:23.293Z,20.68
2022-09-13T21:41:51.341Z,19.82
2022-09-13T21:44:19.167Z,18.94
2022-09-13T21:46:47.189Z,18.27
2022-09-13T21:49:15.841Z,18.17
2022-09-13T21:51:46.621Z,19.41
2022-09-13T21:54:16.731Z,20.50
2022-09-13T21:56:50.170Z,20.88
2022-09-13T21:59:19.807Z,19.99
2022-09-13T22:01:51.441Z,19.10
2022-09-13T22:04:25.405Z,18.49
2022-09-13T22:06:55.452Z,18.01
2022-09-13T22:09:27.406Z,18.03
2022-09-13T22:11:56.816Z,19.42
2022-09-13T22:14:26.751Z,20.54
2022-09-13T22:16:54.840Z,20.85
2022-09-13T22:19:26.296Z,19.97
2022-09-13T22:21:56.717Z,19.04
2022-09-13T22:24:26.640Z,18.36
2022-09-13T22:26:56.505Z,18.16
2022-09-13T22:29:25.230Z,19.48
2022-09-13T22:31:53.585Z,20.61
2022-09-13T22:34:24.355Z,20.92
2022-09-13T22:36:54.773Z,19.93
2022-09-13T22:39:22.942Z,18.94
2022-09-13T22:41:51.478Z,18.22
2022-09-13T22:44:19.443Z,18.04
2022-09-13T22:46:47.612Z,19.37
2022-09-13T22:49:18.036Z,20.48
2022-09-13T22:51:47.645Z,20.80
2022-09-13T22:54:17.705Z,19.89
2022-09-13T22:56:46.292Z,18.98
2022-09-13T22:59:20.070Z,18.30
2022-09-13T23:01:48.495Z,18.14
2022-09-13T23:04:16.750Z,19.40
2022-09-13T23:06:45.095Z,20.61
2022-09-13T23:09:16.851Z,20.98
2022-09-13T23:11:44.942Z,19.98
2022-09-13T23:14:15.236Z,18.97
2022-09-13T23:16:51.427Z,18.22
2022-09-13T23:19:22.073Z,18.01
2022-09-13T23:21:52.635Z,19.28
2022-09-13T23:24:21.170Z,20.54
2022-09-13T23:26:49.047Z,20.88
2022-09-13T23:29:19.277Z,19.87
2022-09-13T23:31:48.268Z,18.84
2022-09-13T23:34:17.774Z,18.10
2022-09-13T23:36:46.574Z,18.51
2022-09-13T23:39:19.160Z,19.90
2022-09-13T23:41:49.042Z,20.57
2022-09-13T23:44:17.755Z,19.71
2022-09-13T23:46:45.812Z,18.78
2022-09-13T23:49:14.093Z,18.08
2022-09-13T23:51:42.026Z,17.98
2022-09-13T23:54:10.538Z,19.12
2022-09-13T23:56:38.406Z,20.35
2022-09-13T23:59:06.523Z,20.67
